Time;durP1;ratioP1;P1;durP2;ratioP2;P2;SDS_P1;SDS_P2;PMS_P1;PMS_P2;Temp;Humidity;BMP_temperature;BMP_pressure;BME280_temperature;BME280_humidity;BME280_pressure;Samples;Min_cycle;Max_cycle;Signal;HPM_P1;HPM_P2
2023/12/26 00:01:47;;;;;;;0.63;0.63;;;;;;;;;;5037181;28;20044;-91
2023/12/26 00:04:15;;;;;;;0.60;0.60;;;11.10;99.90;;;;;;5037291;28;20033;-90
2023/12/26 00:06:45;;;;;;;3.40;1.17;;;11.10;99.90;;;;;;5037104;28;20021;-90
2023/12/26 00:09:14;;;;;;;2.80;0.75;;;10.90;99.90;;;;;;5036908;28;20112;-89
2023/12/26 00:11:46;;;;;;;2.15;0.40;;;11.10;99.90;;;;;;5039324;28;20056;-89
2023/12/26 00:14:12;;;;;;;1.25;1.10;;;;;;;;;;5023944;28;20087;-90
2023/12/26 00:16:42;;;;;;;0.77;0.77;;;10.70;99.90;;;;;;5041235;28;20464;-91
2023/12/26 00:19:08;;;;;;;7.43;1.05;;;;;;;;;;5020792;28;20029;-90
2023/12/26 00:21:36;;;;;;;1.15;1.05;;;10.90;99.90;;;;;;5029035;28;20029;-90
2023/12/26 00:24:04;;;;;;;1.23;1.13;;;10.60;99.90;;;;;;5035709;28;20033;-91
2023/12/26 00:26:32;;;;;;;1.33;1.25;;;10.40;99.90;;;;;;5036418;28;20021;-90
2023/12/26 00:28:59;;;;;;;0.90;0.88;;;10.40;99.90;;;;;;5052888;28;20059;-90
2023/12/26 00:31:25;;;;;;;1.60;0.85;;;;;;;;;;5041576;28;20028;-90
2023/12/26 00:33:53;;;;;;;0.88;0.88;;;10.30;99.90;;;;;;5036555;28;20059;-91
2023/12/26 00:36:19;;;;;;;2.42;1.45;;;;;;;;;;5036107;28;20017;-90
2023/12/26 00:38:48;;;;;;;1.63;1.38;;;10.30;99.90;;;;;;5035826;28;20033;-91
2023/12/26 00:41:17;;;;;;;1.05;1.00;;;10.00;99.90;;;;;;5034440;28;20028;-89
2023/12/26 00:43:46;;;;;;;1.67;1.55;;;10.10;99.90;;;;;;5003235;28;20037;-90
2023/12/26 00:46:13;;;;;;;1.15;1.10;;;;;;;;;;5018928;28;20021;-90
2023/12/26 00:48:40;;;;;;;4.32;1.98;;;;;;;;;;5035088;28;20083;-91
2023/12/26 00:51:06;;;;;;;1.08;1.02;;;10.10;99.90;;;;;;5018058;28;20021;-89
2023/12/26 00:53:37;;;;;;;3.13;1.83;;;10.10;99.90;;;;;;5034880;28;20087;-89
2023/12/26 00:56:04;;;;;;;1.52;1.42;;;10.20;99.90;;;;;;5042288;28;20128;-90
2023/12/26 00:58:32;;;;;;;1.10;1.00;;;;;;;;;;5071894;28;20530;-92
2023/12/26 01:01:01;;;;;;;3.72;1.88;;;10.00;99.90;;;;;;5048823;28;20032;-90
2023/12/26 01:03:27;;;;;;;1.25;1.15;;;;;;;;;;5019733;28;20075;-91
2023/12/26 01:06:03;;;;;;;2.05;1.20;;;10.10;99.90;;;;;;5035588;28;20032;-89
2023/12/26 01:08:29;;;;;;;1.98;1.88;;;;;;;;;;5035365;28;20029;-91
2023/12/26 01:10:56;;;;;;;8.45;2.53;;;10.10;99.90;;;;;;5034256;28;20025;-91
2023/12/26 01:13:23;;;;;;;2.03;1.27;;;10.00;99.90;;;;;;5036026;28;20132;-90
2023/12/26 01:15:52;;;;;;;3.42;1.80;;;9.30;99.90;;;;;;5035439;28;20049;-90
2023/12/26 01:18:19;;;;;;;2.38;1.08;;;10.00;99.90;;;;;;5050335;28;20458;-89
2023/12/26 01:20:47;;;;;;;2.90;2.35;;;10.40;99.90;;;;;;5034158;28;20296;-90
2023/12/26 01:23:13;;;;;;;2.72;1.20;;;10.00;99.90;;;;;;5018857;28;20025;-91
2023/12/26 01:25:39;;;;;;;1.27;1.17;;;;;;;;;;5035068;28;20086;-91
2023/12/26 01:28:06;;;;;;;6.38;2.05;;;10.00;99.90;;;;;;5035036;28;20032;-90
2023/12/26 01:30:33;;;;;;;1.30;1.20;;;10.10;99.90;;;;;;5033908;28;20032;-90
2023/12/26 01:32:59;;;;;;;1.73;1.30;;;;;;;;;;5034913;28;20059;-90
2023/12/26 01:35:25;;;;;;;0.73;0.73;;;;;;;;;;5033104;28;20021;-92
2023/12/26 01:37:56;;;;;;;0.68;0.57;;;10.10;99.90;;;;;;5014655;28;20036;-88
2023/12/26 01:40:22;;;;;;;4.30;2.45;;;;;;;;;;5015327;28;20033;-89
2023/12/26 01:42:53;;;;;;;1.23;1.17;;;10.10;99.90;;;;;;5034995;28;20511;-90
2023/12/26 01:45:19;;;;;;;3.63;1.00;;;10.10;99.90;;;;;;5035038;28;20083;-89
2023/12/26 01:47:51;;;;;;;5.68;1.48;;;10.10;99.90;;;;;;5045043;28;20025;-90
2023/12/26 01:50:18;;;;;;;1.60;1.13;;;;;;;;;;5053661;28;20039;-91
2023/12/26 01:52:44;;;;;;;0.80;0.80;;;10.10;99.90;;;;;;5027932;28;20045;-89
2023/12/26 01:55:13;;;;;;;1.50;0.75;;;10.10;99.90;;;;;;4995507;28;20030;-89
2023/12/26 01:57:41;;;;;;;1.52;1.27;;;10.10;99.90;;;;;;4995305;28;20024;-89
2023/12/26 02:00:08;;;;;;;1.70;1.02;;;;;;;;;;5014429;28;20128;-90
2023/12/26 02:02:42;;;;;;;1.27;1.23;;;10.10;99.90;;;;;;5017992;28;20036;-91
2023/12/26 02:05:09;;;;;;;1.30;1.20;;;;;;;;;;5035132;28;20461;-90
2023/12/26 02:07:36;;;;;;;0.93;0.93;;;10.00;99.90;;;;;;5037026;28;20491;-90
2023/12/26 02:10:06;;;;;;;1.30;1.13;;;;;;;;;;5038137;28;20040;-89
2023/12/26 02:12:32;;;;;;;2.13;1.45;;;10.00;99.90;;;;;;5033472;28;20029;-91
2023/12/26 02:14:58;;;;;;;1.23;0.90;;;10.10;99.90;;;;;;5032750;28;20026;-89
2023/12/26 02:17:29;;;;;;;1.10;1.10;;;10.00;99.90;;;;;;5008718;28;20037;-89
2023/12/26 02:19:55;;;;;;;1.88;1.25;;;10.10;99.90;;;;;;5016525;28;20033;-89
2023/12/26 02:22:21;;;;;;;3.22;1.80;;;10.10;99.90;;;;;;5034426;28;20469;-90
2023/12/26 02:24:50;;;;;;;2.00;1.80;;;;;;;;;;5037884;28;20126;-89
2023/12/26 02:27:16;;;;;;;0.77;0.77;;;;;;;;;;5038304;28;20389;-89
2023/12/26 02:29:44;;;;;;;1.25;1.15;;;10.00;99.90;;;;;;5034481;28;20029;-90
2023/12/26 02:32:12;;;;;;;1.15;1.08;;;10.10;99.90;;;;;;5049260;28;20087;-90
2023/12/26 02:34:41;;;;;;;0.90;0.90;;;;;;;;;;5021219;28;20079;-90
2023/12/26 02:37:07;;;;;;;1.85;1.65;;;10.20;99.90;;;;;;5020856;28;20044;-90
2023/12/26 02:39:33;;;;;;;2.00;1.52;;;10.00;99.90;;;;;;5037505;28;20089;-90
2023/12/26 02:42:02;;;;;;;6.53;1.48;;;;;;;;;;5036734;28;20083;-90
2023/12/26 02:44:28;;;;;;;2.83;1.10;;;10.00;99.90;;;;;;5054142;28;20480;-90
2023/12/26 02:46:54;;;;;;;1.58;1.00;;;;;;;;;;5037519;28;20055;-90
2023/12/26 02:49:23;;;;;;;6.10;2.53;;;;;;;;;;5054492;28;20033;-90
2023/12/26 02:51:49;;;;;;;2.83;1.95;;;10.10;99.90;;;;;;5036330;28;20074;-90
2023/12/26 02:54:15;;;;;;;2.08;1.40;;;;;;;;;;5037588;28;20032;-90
2023/12/26 02:56:42;;;;;;;1.48;1.38;;;;;;;;;;5036765;28;20036;-89
2023/12/26 02:59:08;;;;;;;1.30;1.20;;;10.10;99.90;;;;;;5037281;28;20025;-89
2023/12/26 03:01:36;;;;;;;4.50;1.63;;;;;;;;;;5037107;28;20051;-91
2023/12/26 03:04:02;;;;;;;2.67;1.70;;;10.10;99.90;;;;;;5021435;28;20068;-89
2023/12/26 03:06:35;;;;;;;3.58;1.95;;;10.40;99.90;;;;;;5037513;28;20595;-90
2023/12/26 03:09:04;;;;;;;1.55;1.25;;;10.10;99.90;;;;;;5037733;28;20075;-90
2023/12/26 03:11:33;;;;;;;1.63;1.52;;;10.20;99.90;;;;;;5020215;28;20397;-89
2023/12/26 03:14:02;;;;;;;1.83;0.90;;;;;;;;;;5020854;28;20033;-90
2023/12/26 03:16:28;;;;;;;7.22;1.85;;;10.10;99.90;;;;;;5019927;28;20481;-90
2023/12/26 03:18:59;;;;;;;1.83;1.73;;;8.20;99.90;;;;;;5020182;28;20053;-91
2023/12/26 03:21:25;;;;;;;2.92;1.25;;;10.40;99.90;;;;;;5018710;28;20091;-91
2023/12/26 03:23:52;;;;;;;1.33;1.23;;;;;;;;;;5015397;28;20443;-91
2023/12/26 03:26:19;;;;;;;2.03;1.80;;;;;;;;;;5043686;28;20087;-91
2023/12/26 03:28:45;;;;;;;1.48;1.38;;;10.00;99.90;;;;;;5053741;28;20025;-90
2023/12/26 03:31:12;;;;;;;1.08;0.98;;;10.00;99.90;;;;;;5045365;28;20029;-89
2023/12/26 03:33:40;;;;;;;1.48;1.38;;;10.00;99.90;;;;;;5033589;28;20507;-91
2023/12/26 03:36:08;;;;;;;6.25;1.27;;;;;;;;;;5036735;28;20048;-90
2023/12/26 03:38:37;;;;;;;1.05;1.05;;;10.00;99.90;;;;;;5036646;28;20529;-90
2023/12/26 03:41:05;;;;;;;1.15;1.13;;;;;;;;;;5052720;28;20029;-89
2023/12/26 03:43:32;;;;;;;0.70;0.70;;;;;;;;;;5036531;28;20032;-91
2023/12/26 03:46:02;;;;;;;1.27;1.27;;;;;;;;;;5036936;28;20057;-91
2023/12/26 03:48:28;;;;;;;4.57;1.40;;;10.00;99.90;;;;;;5036512;28;20051;-90
2023/12/26 03:50:54;;;;;;;1.77;1.67;;;9.50;99.90;;;;;;5035765;28;20052;-91
2023/12/26 03:53:21;;;;;;;0.85;0.82;;;10.10;99.90;;;;;;5036606;28;20025;-90
2023/12/26 03:55:48;;;;;;;1.80;0.85;;;9.90;99.90;;;;;;5030413;28;20037;-89
2023/12/26 03:58:14;;;;;;;1.20;1.08;;;;;;;;;;5016343;28;20482;-89
2023/12/26 04:00:40;;;;;;;1.17;1.08;;;10.10;99.90;;;;;;5018924;28;20032;-90
2023/12/26 04:03:07;;;;;;;1.38;1.27;;;10.00;99.90;;;;;;5036068;28;20032;-89
2023/12/26 04:05:33;;;;;;;2.70;2.42;;;;;;;;;;5035941;28;20134;-90
2023/12/26 04:08:00;;;;;;;6.95;1.85;;;;;;;;;;5003592;28;20041;-89
2023/12/26 04:10:28;;;;;;;2.60;1.80;;;;;;;;;;5035353;28;20111;-90
2023/12/26 04:12:54;;;;;;;4.28;2.22;;;10.10;99.90;;;;;;5035818;28;20056;-90
2023/12/26 04:15:20;;;;;;;2.42;2.22;;;10.10;99.90;;;;;;5036122;28;20067;-89
2023/12/26 04:17:47;;;;;;;1.52;1.25;;;10.10;99.90;;;;;;5052158;28;20041;-89
2023/12/26 04:20:19;;;;;;;1.75;1.65;;;10.30;99.90;;;;;;5069021;28;20024;-90
2023/12/26 04:22:46;;;;;;;1.90;1.60;;;;;;;;;;5015954;28;20034;-89
2023/12/26 04:25:12;;;;;;;2.30;2.03;;;;;;;;;;5032780;28;20461;-90
2023/12/26 04:27:39;;;;;;;2.30;2.15;;;;;;;;;;5035471;28;20029;-90
2023/12/26 04:30:06;;;;;;;3.65;2.38;;;10.20;99.90;;;;;;5034959;28;20040;-90
2023/12/26 04:32:35;;;;;;;7.38;1.73;;;10.20;99.90;;;;;;5031554;28;20037;-89
2023/12/26 04:35:04;;;;;;;3.58;2.75;;;10.30;99.90;;;;;;5027542;28;20047;-90
2023/12/26 04:37:30;;;;;;;1.90;1.80;;;10.20;99.90;;;;;;5035551;28;20033;-89
2023/12/26 04:39:57;;;;;;;4.95;2.30;;;;;;;;;;5035408;28;20028;-90
2023/12/26 04:42:23;;;;;;;3.90;2.35;;;10.20;99.90;;;;;;5034780;28;20032;-89
2023/12/26 04:44:52;;;;;;;2.20;2.00;;;;;;;;;;5034153;28;20035;-90
2023/12/26 04:47:19;;;;;;;2.28;1.75;;;;;;;;;;5025526;28;20398;-90
2023/12/26 04:49:45;;;;;;;6.22;2.45;;;;;;;;;;5032239;28;20079;-89
2023/12/26 04:52:18;;;;;;;4.07;3.75;;;;;;;;;;5034505;28;20039;-90
2023/12/26 04:54:44;;;;;;;1.73;1.63;;;10.10;99.90;;;;;;5018582;28;20029;-89
2023/12/26 04:57:11;;;;;;;10.70;2.42;;;10.00;99.90;;;;;;5035773;28;20063;-89
2023/12/26 04:59:38;;;;;;;4.57;3.20;;;10.00;99.90;;;;;;5035538;28;20491;-91
2023/12/26 05:02:06;;;;;;;6.20;2.33;;;9.90;99.90;;;;;;5018325;28;20508;-91
2023/12/26 05:04:35;;;;;;;7.18;1.95;;;10.10;99.90;;;;;;5051804;28;20033;-89
2023/12/26 05:07:04;;;;;;;2.80;2.60;;;10.10;99.90;;;;;;5019145;28;20025;-90
2023/12/26 05:09:30;;;;;;;3.80;3.47;;;;;;;;;;5035567;28;20083;-90
2023/12/26 05:11:56;;;;;;;4.05;2.25;;;10.00;99.90;;;;;;5034752;28;20024;-90
2023/12/26 05:14:24;;;;;;;3.70;2.35;;;10.00;99.90;;;;;;5037571;28;20025;-89
2023/12/26 05:16:51;;;;;;;4.40;2.63;;;;;;;;;;5054872;28;20044;-90
2023/12/26 05:19:17;;;;;;;12.85;3.28;;;10.00;99.90;;;;;;5038702;28;20059;-90
2023/12/26 05:21:48;;;;;;;2.20;2.00;;;10.00;99.90;;;;;;5030985;28;20033;-89
2023/12/26 05:24:18;;;;;;;6.88;3.20;;;9.90;99.90;;;;;;5004805;28;20040;-89
2023/12/26 05:26:45;;;;;;;8.73;2.83;;;;;;;;;;5034809;28;20034;-90
2023/12/26 05:29:11;;;;;;;9.20;3.40;;;10.00;99.90;;;;;;5040879;28;20294;-91
2023/12/26 05:31:41;;;;;;;6.32;2.97;;;10.10;99.90;;;;;;5032603;28;20037;-93
2023/12/26 05:34:08;;;;;;;10.25;2.85;;;10.10;99.90;;;;;;5042593;28;20101;-90
2023/12/26 05:36:35;;;;;;;3.75;3.45;;;;;;;;;;5044667;28;20021;-90
2023/12/26 05:39:01;;;;;;;5.63;3.13;;;10.00;99.90;;;;;;5039578;28;20118;-90
2023/12/26 05:41:27;;;;;;;4.43;3.15;;;;;;;;;;5043251;28;20039;-90
2023/12/26 05:43:54;;;;;;;3.92;2.90;;;10.00;99.90;;;;;;5043526;28;20103;-90
2023/12/26 05:46:20;;;;;;;4.53;2.63;;;;;;;;;;5026097;28;20021;-89
2023/12/26 05:48:48;;;;;;;1.80;1.70;;;;;;;;;;5046183;28;20033;-91
2023/12/26 05:51:16;;;;;;;5.13;3.58;;;10.00;99.90;;;;;;5050516;28;20044;-91
2023/12/26 05:53:43;;;;;;;3.83;2.47;;;;;;;;;;5028982;28;20033;-89
2023/12/26 05:56:12;;;;;;;4.82;4.13;;;9.90;99.90;;;;;;5061539;28;20017;-89
2023/12/26 05:58:40;;;;;;;8.23;3.25;;;9.90;99.90;;;;;;5060042;28;20040;-92
2023/12/26 06:01:12;;;;;;;5.03;2.92;;;9.80;99.90;;;;;;5057164;28;20079;-90
2023/12/26 06:03:39;;;;;;;5.82;3.67;;;;;;;;;;5043749;28;20382;-92
2023/12/26 06:06:11;;;;;;;4.57;3.25;;;9.80;99.90;;;;;;5044168;28;20025;-90
2023/12/26 06:08:40;;;;;;;12.38;4.10;;;9.70;99.90;;;;;;5052526;28;20009;-94
2023/12/26 06:11:09;;;;;;;7.03;3.97;;;9.80;99.90;;;;;;5060828;28;20021;-91
2023/12/26 06:13:36;;;;;;;8.98;4.57;;;;;;;;;;5033032;28;20017;-93
2023/12/26 06:16:03;;;;;;;4.68;3.42;;;;;;;;;;5041973;28;20040;-91
2023/12/26 06:18:32;;;;;;;8.70;4.30;;;9.70;99.90;;;;;;5042189;28;20024;-93
2023/12/26 06:20:58;;;;;;;4.82;3.65;;;;;;;;;;5048122;28;20081;-90
2023/12/26 06:23:26;;;;;;;13.57;5.35;;;;;;;;;;5046428;28;20020;-88
2023/12/26 06:25:56;;;;;;;8.02;3.78;;;9.70;99.90;;;;;;5062706;28;20017;-92
2023/12/26 06:28:22;;;;;;;4.70;2.28;;;9.60;99.90;;;;;;5050346;28;20029;-89
2023/12/26 06:30:50;;;;;;;9.55;2.97;;;;;;;;;;5044529;28;20025;-89
2023/12/26 06:33:17;;;;;;;2.80;2.22;;;9.60;99.90;;;;;;5043909;28;20055;-90
2023/12/26 06:35:46;;;;;;;7.07;2.45;;;9.50;99.90;;;;;;5046735;28;20078;-89
2023/12/26 06:38:13;;;;;;;5.97;2.33;;;;;;;;;;5045537;28;20056;-90
2023/12/26 06:40:40;;;;;;;4.50;1.85;;;9.40;99.90;;;;;;5043079;28;20053;-89
2023/12/26 06:43:14;;;;;;;8.52;2.17;;;9.40;99.90;;;;;;5035946;28;20021;-90
2023/12/26 06:45:41;;;;;;;5.70;2.47;;;;;;;;;;5022299;28;20038;-90
2023/12/26 06:48:08;;;;;;;2.42;1.52;;;9.20;99.90;;;;;;5021915;28;20121;-90
2023/12/26 06:50:42;;;;;;;1.45;1.23;;;9.00;99.90;;;;;;5023180;28;20034;-89
2023/12/26 06:53:08;;;;;;;4.95;1.48;;;9.20;99.90;;;;;;5023463;28;20083;-89
2023/12/26 06:55:35;;;;;;;3.17;1.80;;;9.10;99.90;;;;;;5042329;28;20069;-90
2023/12/26 06:58:01;;;;;;;7.03;1.52;;;9.00;99.90;;;;;;5040822;28;20017;-90
2023/12/26 07:00:28;;;;;;;6.28;2.40;;;;;;;;;;5039793;28;20082;-92
2023/12/26 07:02:55;;;;;;;2.50;0.95;;;;;;;;;;5039693;28;20036;-90
2023/12/26 07:05:22;;;;;;;1.52;1.20;;;;;;;;;;5029951;28;20022;-90
2023/12/26 07:07:49;;;;;;;4.45;1.67;;;9.00;99.90;;;;;;5018880;28;20033;-89
2023/12/26 07:10:19;;;;;;;4.22;1.25;;;8.90;99.90;;;;;;5038282;28;20055;-89
2023/12/26 07:12:46;;;;;;;5.90;1.33;;;;;;;;;;5054071;28;20048;-89
2023/12/26 07:15:12;;;;;;;2.92;1.40;;;8.80;99.90;;;;;;5034298;28;20033;-90
2023/12/26 07:17:42;;;;;;;1.40;0.85;;;;;;;;;;5053703;28;20484;-92
2023/12/26 07:20:09;;;;;;;10.05;4.45;;;;;;;;;;5020984;28;20083;-89
2023/12/26 07:22:35;;;;;;;5.40;2.35;;;8.60;99.90;;;;;;5020641;28;20017;-89
2023/12/26 07:25:01;;;;;;;4.05;2.40;;;8.60;99.90;;;;;;5037585;28;20024;-89
2023/12/26 07:27:28;;;;;;;6.18;1.90;;;;;;;;;;5054598;28;20028;-90
2023/12/26 07:29:55;;;;;;;6.25;1.23;;;;;;;;;;5020823;28;20466;-89
2023/12/26 07:32:21;;;;;;;3.70;3.15;;;;;;;;;;5036838;28;20033;-91
2023/12/26 07:34:47;;;;;;;6.50;2.78;;;8.30;99.90;;;;;;5037625;28;20401;-90
2023/12/26 07:37:18;;;;;;;2.78;1.52;;;8.10;99.90;;;;;;5037506;28;20453;-90
2023/12/26 07:39:46;;;;;;;14.73;13.23;;;8.10;99.90;;;;;;5037376;28;20029;-92
2023/12/26 07:42:12;;;;;;;18.98;10.10;;;8.00;99.90;;;;;;5032868;28;20026;-90
2023/12/26 07:44:41;;;;;;;8.48;3.80;;;7.90;99.90;;;;;;5031336;28;20028;-90
2023/12/26 07:47:09;;;;;;;7.13;3.45;;;8.00;99.90;;;;;;5035796;28;20473;-89
2023/12/26 07:49:35;;;;;;;4.35;3.00;;;;;;;;;;5033216;28;20505;-90
2023/12/26 07:52:01;;;;;;;6.97;3.38;;;7.90;99.90;;;;;;5051248;28;20120;-89
2023/12/26 07:54:30;;;;;;;7.35;4.03;;;;;;;;;;5036134;28;20056;-89
2023/12/26 07:56:58;;;;;;;8.95;3.08;;;7.90;99.90;;;;;;5033883;28;20063;-89
2023/12/26 07:59:24;;;;;;;9.82;7.45;;;8.00;99.90;;;;;;5035775;28;20036;-89
2023/12/26 08:01:51;;;;;;;10.02;3.53;;;;;;;;;;5025392;28;20244;-90
2023/12/26 08:04:17;;;;;;;4.00;3.60;;;;;;;;;;5035368;28;20044;-89
2023/12/26 08:06:43;;;;;;;11.27;4.40;;;;;;;;;;5032586;28;20056;-89
2023/12/26 08:09:12;;;;;;;11.07;3.20;;;;;;;;;;5051415;28;20029;-89
2023/12/26 08:11:39;;;;;;;9.27;2.88;;;;;;;;;;5027321;28;20367;-89
2023/12/26 08:14:06;;;;;;;7.72;3.50;;;8.10;99.90;;;;;;5040126;28;20094;-90
2023/12/26 08:16:33;;;;;;;4.70;2.58;;;;;;;;;;5027278;28;20037;-91
2023/12/26 08:19:00;;;;;;;13.90;3.45;;;8.20;99.90;;;;;;5032631;28;20079;-91
2023/12/26 08:21:26;;;;;;;8.65;3.33;;;;;;;;;;5031231;28;20022;-90
2023/12/26 08:23:56;;;;;;;9.07;3.40;;;;;;;;;;5029203;28;20026;-90
2023/12/26 08:26:31;;;;;;;8.40;3.88;;;8.50;99.90;;;;;;5018992;28;20032;-89
2023/12/26 08:28:58;;;;;;;5.55;4.63;;;8.60;99.90;;;;;;5001379;28;20044;-90
2023/12/26 08:31:27;;;;;;;6.95;4.25;;;;;;;;;;5033526;28;20056;-89
2023/12/26 08:33:57;;;;;;;;;;;8.60;99.90;;;;;;5019431;28;20103;-90
2023/12/26 08:36:23;;;;;;;17.35;4.30;;;8.70;99.90;;;;;;5020368;28;19909;-90
2023/12/26 08:38:49;;;;;;;5.32;4.03;;;;;;;;;;5015248;28;20024;-90
2023/12/26 08:41:15;;;;;;;8.13;2.75;;;8.80;99.90;;;;;;5031543;28;20051;-89
2023/12/26 08:43:44;;;;;;;6.55;4.35;;;9.00;99.90;;;;;;5031383;28;20021;-89
2023/12/26 08:46:11;;;;;;;3.47;2.97;;;;;;;;;;5034715;28;20025;-93
2023/12/26 08:48:36;;;;;;;7.07;2.60;;;8.90;99.90;;;;;;5018578;28;20021;-90
2023/12/26 08:51:03;;;;;;;4.65;3.70;;;;;;;;;;5019830;28;20089;-90
2023/12/26 08:53:29;;;;;;;13.63;4.90;;;9.10;99.90;;;;;;5034969;28;20029;-89
2023/12/26 08:55:57;;;;;;;11.43;8.98;;;9.20;99.90;;;;;;5016300;28;20025;-90
2023/12/26 08:58:29;;;;;;;14.50;6.00;;;;;;;;;;5016763;28;20120;-90
2023/12/26 09:00:56;;;;;;;20.05;4.15;;;;;;;;;;5028747;28;20244;-89
2023/12/26 09:03:22;;;;;;;13.25;6.03;;;9.30;99.90;;;;;;5015996;28;20036;-90
2023/12/26 09:05:48;;;;;;;12.10;4.60;;;;;;;;;;5031670;28;20059;-91
2023/12/26 09:08:14;;;;;;;8.95;4.72;;;9.30;99.90;;;;;;5030429;28;20021;-89
2023/12/26 09:10:40;;;;;;;10.75;3.60;;;9.60;99.90;;;;;;5030409;28;20028;-89
2023/12/26 09:13:06;;;;;;;6.82;2.20;;;;;;;;;;5033970;28;20538;-89
2023/12/26 09:15:33;;;;;;;7.90;2.17;;;9.70;99.90;;;;;;5037793;28;20040;-90
2023/12/26 09:17:59;;;;;;;12.93;3.53;;;9.60;99.90;;;;;;5037276;28;20032;-89
2023/12/26 09:20:27;;;;;;;7.50;3.72;;;;;;;;;;5038618;28;20032;-90
2023/12/26 09:22:54;;;;;;;6.60;5.05;;;;;;;;;;5022785;28;20033;-90
2023/12/26 09:25:20;;;;;;;20.05;10.30;;;9.30;99.90;;;;;;5039801;28;20029;-89
2023/12/26 09:27:46;;;;;;;6.72;2.88;;;9.40;99.90;;;;;;5039558;28;20032;-92
2023/12/26 09:30:13;;;;;;;6.63;2.58;;;9.80;99.90;;;;;;5039203;28;20406;-89
2023/12/26 09:32:39;;;;;;;5.03;2.60;;;;;;;;;;5036329;28;20111;-88
2023/12/26 09:35:06;;;;;;;2.88;2.10;;;;;;;;;;5019958;28;20033;-89
2023/12/26 09:37:38;;;;;;;10.60;3.70;;;;;;;;;;5025646;28;20022;-88
2023/12/26 09:40:07;;;;;;;10.55;7.57;;;10.10;99.90;;;;;;5035362;28;20117;-88
2023/12/26 09:42:33;;;;;;;10.57;3.67;;;10.40;99.90;;;;;;5036942;28;20428;-90
2023/12/26 09:45:02;;;;;;;8.02;2.20;;;;;;;;;;5038786;28;20088;-89
2023/12/26 09:47:31;;;;;;;15.93;3.65;;;10.80;99.90;;;;;;5039400;28;20029;-89
2023/12/26 09:49:57;;;;;;;11.70;4.38;;;10.40;99.90;;;;;;5039248;28;20033;-90
2023/12/26 09:52:31;;;;;;;7.50;3.78;;;10.30;99.90;;;;;;5035731;28;20029;-91
2023/12/26 09:55:02;;;;;;;12.93;5.25;;;10.10;99.90;;;;;;5039565;28;20473;-91
2023/12/26 09:57:30;;;;;;;8.98;5.95;;;10.70;99.90;;;;;;5039104;28;20460;-89
2023/12/26 09:59:59;;;;;;;13.80;7.45;;;11.20;99.90;;;;;;5039077;28;20167;-88
2023/12/26 10:02:27;;;;;;;20.92;14.75;;;;;;;;;;5021673;28;20492;-91
2023/12/26 10:04:56;;;;;;;6.72;4.50;;;;;;;;;;5049688;28;20048;-90
2023/12/26 10:07:25;;;;;;;6.15;2.88;;;;;;;;;;5049615;28;20033;-90
2023/12/26 10:09:51;;;;;;;10.27;3.38;;;10.50;99.90;;;;;;5036588;28;20029;-91
2023/12/26 10:12:25;;;;;;;9.68;3.70;;;10.50;99.90;;;;;;5034751;28;20117;-91
2023/12/26 10:14:58;;;;;;;12.15;4.88;;;10.20;99.90;;;;;;5042024;28;20065;-91
2023/12/26 10:17:26;;;;;;;2.20;2.00;;;9.80;99.90;;;;;;5019361;28;20034;-91
2023/12/26 10:19:59;;;;;;;2.47;1.60;;;9.60;99.90;;;;;;5019681;28;20028;-91
2023/12/26 10:22:28;;;;;;;8.63;4.22;;;9.40;99.90;;;;;;5035802;28;20033;-91
2023/12/26 10:25:00;;;;;;;7.40;5.18;;;;;;;;;;5007360;28;20033;-90
2023/12/26 10:27:28;;;;;;;7.57;3.03;;;9.10;99.90;;;;;;5037324;28;20029;-90
2023/12/26 10:29:55;;;;;;;5.25;2.05;;;;;;;;;;5039101;28;20025;-90
2023/12/26 10:32:25;;;;;;;7.68;3.25;;;9.10;99.90;;;;;;5037770;28;20469;-91
2023/12/26 10:34:54;;;;;;;6.38;2.47;;;8.90;99.90;;;;;;5039012;28;20040;-91
2023/12/26 10:37:23;;;;;;;5.82;3.83;;;9.70;99.90;;;;;;5041747;28;20029;-89
2023/12/26 10:39:50;;;;;;;6.10;3.50;;;;;;;;;;5023218;28;20083;-92
2023/12/26 10:42:17;;;;;;;4.30;2.22;;;10.90;99.90;;;;;;5025412;28;20032;-89
2023/12/26 10:45:00;;;;;;;2.15;1.90;;;10.80;99.90;;;;;;5035764;28;20021;-89
2023/12/26 10:47:30;;;;;;;6.38;2.67;;;11.90;99.90;;;;;;5027683;28;20033;-89
2023/12/26 10:50:02;;;;;;;7.88;2.97;;;12.50;99.90;;;;;;5024925;28;20021;-94
2023/12/26 10:52:34;;;;;;;8.95;4.05;;;12.40;99.90;;;;;;5034294;28;20061;-91
2023/12/26 10:55:00;;;;;;;2.88;2.22;;;;;;;;;;5019306;28;20095;-90
2023/12/26 10:57:32;;;;;;;5.22;2.45;;;12.30;99.90;;;;;;5033751;28;20026;-89
2023/12/26 13:54:08;;;;;;;10.77;6.50;;;9.40;99.90;;;;;;5044741;28;20048;-88
2023/12/26 13:57:12;;;;;;;12.02;5.20;;;9.50;99.90;;;;;;5033118;28;20041;-90
2023/12/26 14:00:15;;;;;;;8.80;4.00;;;9.50;99.90;;;;;;5033549;28;20032;-88
2023/12/26 14:03:18;;;;;;;10.73;3.45;;;9.50;99.90;;;;;;5014024;28;20025;-88
2023/12/26 14:06:26;;;;;;;4.45;4.07;;;9.50;99.90;;;;;;5037010;28;20029;-89
2023/12/26 14:09:30;;;;;;;6.63;2.10;;;9.50;99.90;;;;;;5032075;28;20592;-89
2023/12/26 14:12:36;;;;;;;10.45;4.35;;;9.50;99.90;;;;;;5038869;28;20493;-89
2023/12/26 14:15:39;;;;;;;2.97;2.17;;;9.50;99.90;;;;;;5021307;28;20033;-89
2023/12/26 14:18:43;;;;;;;4.57;3.35;;;9.50;99.90;;;;;;5040162;28;20041;-90
2023/12/26 14:21:47;;;;;;;15.52;2.72;;;9.50;99.90;;;;;;5039372;28;20032;-92
2023/12/26 14:24:53;;;;;;;5.40;3.80;;;9.60;99.90;;;;;;5041140;28;20029;-90
2023/12/26 14:27:59;;;;;;;9.98;2.95;;;9.50;99.90;;;;;;5023714;28;20048;-91
2023/12/26 14:31:03;;;;;;;6.65;3.72;;;9.50;99.90;;;;;;5023450;28;20064;-92
2023/12/26 14:34:06;;;;;;;13.85;3.17;;;9.50;99.90;;;;;;5043866;28;20029;-95
2023/12/26 14:37:12;;;;;;;4.85;2.90;;;10.50;99.90;;;;;;5004493;28;20018;-91
2023/12/26 14:40:15;;;;;;;4.85;2.50;;;9.40;99.90;;;;;;5020331;28;20033;-91
2023/12/26 14:43:20;;;;;;;10.70;4.65;;;9.40;99.90;;;;;;5034528;28;20060;-90
2023/12/26 14:46:25;;;;;;;7.13;4.75;;;9.40;99.90;;;;;;5040054;28;20037;-92
2023/12/26 14:49:29;;;;;;;8.32;3.83;;;9.40;99.90;;;;;;5027560;28;20508;-91
2023/12/26 14:52:32;;;;;;;6.05;3.95;;;9.40;99.90;;;;;;5028684;28;20033;-92
2023/12/26 14:55:37;;;;;;;8.43;4.55;;;9.40;99.90;;;;;;5034052;28;20041;-92
2023/12/26 14:58:43;;;;;;;7.55;2.80;;;9.90;99.90;;;;;;5035703;28;20104;-91
2023/12/26 15:01:49;;;;;;;6.55;4.57;;;9.30;99.90;;;;;;5035558;28;20037;-92
2023/12/26 15:04:24;;;;;;;17.10;4.82;;;9.30;99.90;;;;;;5020013;28;20096;-93
2023/12/26 15:06:56;;;;;;;16.35;3.08;;;;;;;;;;5028881;28;20115;-90
2023/12/26 15:09:22;;;;;;;10.55;2.90;;;;;;;;;;5056853;28;20068;-91
2023/12/26 15:11:51;;;;;;;3.30;2.95;;;9.30;99.90;;;;;;5051753;28;20106;-90
2023/12/26 15:14:24;;;;;;;9.68;3.75;;;9.30;99.90;;;;;;5036206;28;20421;-91
2023/12/26 15:16:51;;;;;;;11.82;2.58;;;;;;;;;;5036965;28;20057;-91
2023/12/26 15:19:17;;;;;;;11.15;3.67;;;;;;;;;;5038821;28;20043;-91
2023/12/26 15:22:01;;;;;;;13.27;5.05;;;9.20;99.90;;;;;;5037833;28;20043;-92
2023/12/26 15:24:30;;;;;;;6.10;4.13;;;;;;;;;;5037586;28;20119;-92
2023/12/26 15:26:56;;;;;;;17.75;5.57;;;9.20;99.90;;;;;;5032063;28;20018;-92
2023/12/26 15:29:24;;;;;;;6.43;3.78;;;9.20;99.90;;;;;;5021117;28;20100;-92
2023/12/26 15:31:56;;;;;;;8.10;4.95;;;9.20;99.90;;;;;;5027749;28;20065;-90
2023/12/26 15:34:44;;;;;;;2.80;2.05;;;9.10;99.90;;;;;;5029575;28;20036;-93
2023/12/26 15:37:21;;;;;;;6.80;2.88;;;;;;;;;;5034160;28;20033;-91
2023/12/26 15:39:50;;;;;;;10.65;4.28;;;9.10;99.90;;;;;;5002948;28;20029;-91
2023/12/26 15:42:23;;;;;;;5.55;3.47;;;9.10;99.90;;;;;;5027070;28;20095;-91
2023/12/26 15:44:57;;;;;;;4.38;2.97;;;9.00;99.90;;;;;;5026339;28;20025;-91
2023/12/26 15:47:26;;;;;;;11.98;3.72;;;;;;;;;;5007661;28;20025;-91
2023/12/26 15:49:52;;;;;;;5.28;3.90;;;9.00;99.90;;;;;;5032948;28;20064;-90
2023/12/26 15:52:21;;;;;;;6.38;3.78;;;;;;;;;;5017601;28;20052;-92
2023/12/26 15:54:47;;;;;;;9.75;3.08;;;;;;;;;;5034529;28;20034;-91
2023/12/26 15:57:14;;;;;;;10.73;3.67;;;;;;;;;;5034763;28;20041;-90
2023/12/26 15:59:54;;;;;;;8.77;3.97;;;9.00;99.90;;;;;;5019861;28;20041;-91
2023/12/26 16:02:23;;;;;;;4.85;2.53;;;8.90;99.90;;;;;;5013518;28;20685;-91
2023/12/26 16:04:57;;;;;;;11.43;3.42;;;8.90;99.90;;;;;;4982278;28;20046;-92
2023/12/26 16:07:43;;;;;;;18.55;3.70;;;9.00;99.90;;;;;;4902050;28;20054;-90
2023/12/26 16:10:28;;;;;;;5.43;3.95;;;8.90;99.90;;;;;;4955136;28;20042;-92
2023/12/26 16:13:00;;;;;;;7.78;3.75;;;;;;;;;;4985145;28;20050;-90
2023/12/26 16:15:43;;;;;;;16.17;7.47;;;8.90;99.90;;;;;;4986491;28;20027;-91
2023/12/26 16:18:22;;;;;;;29.45;20.35;;;;;;;;;;4981212;28;20044;-92
2023/12/26 16:20:48;;;;;;;10.40;5.55;;;;;;;;;;4971187;28;20078;-92
2023/12/26 16:23:26;;;;;;;12.00;4.60;;;8.80;99.90;;;;;;4968414;28;20035;-90
2023/12/26 16:25:58;;;;;;;19.17;9.52;;;8.80;99.90;;;;;;4954758;28;20041;-91
2023/12/26 16:28:27;;;;;;;10.85;5.82;;;;;;;;;;4954289;28;20065;-91
2023/12/26 16:31:00;;;;;;;18.63;9.45;;;8.70;99.90;;;;;;4969048;28;20034;-91
2023/12/26 16:33:27;;;;;;;7.35;4.30;;;;;;;;;;4951781;28;20039;-91
2023/12/26 16:36:02;;;;;;;15.50;5.55;;;8.70;99.90;;;;;;4971926;28;20019;-90
2023/12/26 16:38:31;;;;;;;16.33;5.95;;;;;;;;;;4958000;28;20041;-92
2023/12/26 16:41:11;;;;;;;3.88;2.55;;;8.60;99.90;;;;;;4987022;28;20478;-92